createdAt,value
2023-01-23T00:03:49.623Z,8.45
2023-01-23T00:08:53.015Z,8.63
2023-01-23T00:13:57.151Z,9.95
2023-01-23T00:19:02.132Z,9.20
2023-01-23T00:24:06.314Z,7.82
2023-01-23T00:29:09.954Z,9.33
2023-01-23T00:34:15.335Z,9.55
2023-01-23T00:44:23.110Z,10.97
2023-01-23T00:49:28.067Z,6.82
2023-01-23T00:54:31.439Z,9.90
2023-01-23T00:59:34.778Z,9.68
2023-01-23T01:04:39.733Z,9.70
2023-01-23T01:09:42.900Z,10.73
2023-01-23T01:14:46.373Z,9.68
2023-01-23T01:19:53.044Z,8.23
2023-01-23T01:24:57.512Z,9.00
2023-01-23T01:30:00.757Z,9.80
2023-01-23T01:35:07.343Z,8.55
2023-01-23T01:40:15.358Z,10.02
2023-01-23T01:45:56.740Z,10.05
2023-01-23T01:51:04.124Z,10.98
2023-01-23T01:56:10.555Z,9.88
2023-01-23T02:01:14.208Z,9.23
2023-01-23T02:06:19.875Z,8.77
2023-01-23T02:11:23.613Z,9.27
2023-01-23T02:16:29.644Z,9.63
2023-01-23T02:21:37.101Z,9.88
2023-01-23T02:26:44.387Z,10.50
2023-01-23T02:31:49.800Z,9.75
2023-01-23T02:36:53.310Z,9.52
2023-01-23T02:41:59.555Z,10.73
2023-01-23T02:47:17.063Z,10.13
2023-01-23T02:52:20.345Z,9.48
2023-01-23T02:57:24.926Z,8.90
2023-01-23T03:02:28.373Z,7.85
2023-01-23T03:07:31.631Z,9.82
2023-01-23T03:12:42.451Z,10.52
2023-01-23T03:17:46.567Z,8.70
2023-01-23T03:22:50.639Z,11.20
2023-01-23T03:27:55.399Z,8.57
2023-01-23T03:32:58.901Z,9.82
2023-01-23T03:38:02.581Z,9.15
2023-01-23T03:43:07.632Z,10.60
2023-01-23T03:48:14.639Z,9.00
2023-01-23T03:53:19.658Z,11.82
2023-01-23T03:58:26.462Z,9.40
2023-01-23T04:03:30.492Z,9.25
2023-01-23T04:08:34.345Z,9.18
2023-01-23T04:13:39.605Z,10.13
2023-01-23T04:18:43.122Z,9.57
2023-01-23T04:23:46.944Z,9.05
2023-01-23T04:28:51.841Z,10.65
2023-01-23T04:33:55.163Z,9.70
2023-01-23T04:38:59.861Z,9.57
2023-01-23T04:44:21.151Z,10.05
2023-01-23T04:50:02.458Z,9.57
2023-01-23T04:55:10.054Z,10.80
2023-01-23T05:00:15.653Z,10.00
2023-01-23T05:05:21.225Z,10.80
2023-01-23T05:10:27.321Z,10.57
2023-01-23T05:15:34.175Z,8.55
2023-01-23T05:20:38.477Z,10.80
2023-01-23T05:25:41.880Z,11.75
2023-01-23T05:30:47.319Z,10.32
2023-01-23T05:36:00.376Z,10.90
2023-01-23T05:41:04.326Z,10.90
2023-01-23T05:46:44.651Z,9.90
2023-01-23T05:51:49.717Z,10.10
2023-01-23T05:56:53.167Z,11.07
2023-01-23T06:02:12.976Z,10.27
2023-01-23T06:07:55.082Z,10.57
2023-01-23T06:12:58.655Z,9.32
2023-01-23T06:18:03.618Z,10.45
2023-01-23T06:23:07.267Z,10.48
2023-01-23T06:28:10.618Z,10.95
2023-01-23T06:33:15.649Z,11.57
2023-01-23T06:38:19.332Z,12.48
2023-01-23T06:43:25.863Z,9.77
2023-01-23T06:48:31.613Z,10.05
2023-01-23T06:53:36.231Z,10.43
2023-01-23T06:58:39.879Z,10.82
2023-01-23T07:03:52.649Z,8.90
2023-01-23T07:08:56.569Z,9.13
2023-01-23T07:13:59.951Z,10.52
2023-01-23T07:19:06.120Z,8.48
2023-01-23T07:24:14.902Z,8.63
2023-01-23T07:29:18.265Z,10.00
2023-01-23T07:34:22.881Z,11.40
2023-01-23T07:39:26.398Z,10.80
2023-01-23T07:44:29.697Z,9.60
2023-01-23T07:49:34.569Z,10.23
2023-01-23T07:54:38.049Z,9.57
2023-01-23T07:59:41.486Z,12.88
2023-01-23T08:04:46.205Z,9.00
2023-01-23T08:09:49.612Z,10.20
2023-01-23T08:14:53.006Z,9.52
2023-01-23T08:19:57.709Z,10.65
2023-01-23T08:25:01.004Z,9.45
2023-01-23T08:30:05.625Z,11.93
2023-01-23T08:35:10.560Z,8.87
2023-01-23T08:40:14.042Z,10.65
2023-01-23T08:45:18.471Z,12.20
2023-01-23T08:50:23.242Z,9.85
2023-01-23T08:55:28.425Z,9.30
2023-01-23T09:00:31.659Z,7.97
2023-01-23T09:05:36.400Z,10.20
2023-01-23T09:10:39.769Z,10.90
2023-01-23T09:15:43.476Z,9.65
2023-01-23T09:20:48.144Z,10.75
2023-01-23T09:25:51.672Z,10.15
2023-01-23T09:30:55.027Z,10.52
2023-01-23T09:35:59.671Z,9.43
2023-01-23T09:41:09.737Z,11.23
2023-01-23T09:46:20.632Z,10.43
2023-01-23T09:51:29.727Z,10.25
2023-01-23T09:56:38.030Z,10.18
2023-01-23T10:01:41.416Z,11.25
2023-01-23T10:07:19.139Z,9.68
2023-01-23T10:12:37.285Z,8.48
2023-01-23T10:17:47.928Z,9.60
2023-01-23T10:23:05.243Z,9.15
2023-01-23T10:28:25.036Z,9.20
2023-01-23T10:33:36.330Z,9.18
2023-01-23T10:38:48.461Z,9.13
2023-01-23T10:50:16.422Z,9.63
2023-01-23T10:55:30.450Z,11.30
2023-01-23T11:00:36.440Z,9.67
2023-01-23T11:05:54.725Z,8.73
2023-01-23T11:11:19.684Z,9.68
2023-01-23T11:21:28.589Z,10.45
2023-01-23T11:26:34.287Z,8.27
2023-01-23T11:31:37.599Z,9.82
2023-01-23T11:36:48.666Z,10.57
2023-01-23T11:41:53.410Z,9.65
2023-01-23T11:47:18.937Z,10.25
2023-01-23T11:52:38.949Z,10.15
2023-01-23T11:57:55.572Z,10.95
2023-01-23T12:03:28.740Z,8.20
2023-01-23T12:08:41.553Z,10.93
2023-01-23T12:14:12.976Z,9.88
2023-01-23T12:19:34.156Z,8.13
2023-01-23T12:24:53.493Z,9.45
2023-01-23T12:30:32.496Z,9.75
2023-01-23T12:35:47.617Z,9.90
2023-01-23T12:46:05.870Z,7.72
2023-01-23T12:51:16.028Z,9.65
2023-01-23T12:56:24.497Z,9.63
2023-01-23T13:01:46.518Z,9.30
2023-01-23T13:07:14.348Z,9.15
2023-01-23T13:12:22.577Z,9.13
2023-01-23T13:17:31.045Z,8.30
2023-01-23T13:22:38.413Z,8.50
2023-01-23T13:27:50.521Z,9.30
2023-01-23T13:33:00.702Z,8.43
2023-01-23T13:38:37.571Z,7.57
2023-01-23T13:43:55.256Z,7.05
2023-01-23T14:21:49.346Z,6.57
2023-01-23T14:27:02.521Z,6.65
2023-01-23T14:32:22.801Z,7.20
2023-01-23T14:37:29.310Z,7.43
2023-01-23T14:42:33.822Z,7.13
2023-01-23T14:47:42.382Z,7.87
2023-01-23T14:52:57.310Z,7.15
2023-01-23T14:58:03.628Z,6.90
2023-01-23T15:03:08.427Z,6.38
2023-01-23T15:08:21.441Z,5.68
2023-01-23T15:13:29.190Z,6.97
2023-01-23T15:18:55.737Z,5.45
2023-01-23T15:24:27.699Z,7.20
2023-01-23T15:29:32.655Z,7.63
2023-01-23T15:34:36.151Z,7.95
2023-01-23T15:39:49.765Z,5.75
2023-01-23T15:44:53.394Z,7.03
2023-01-23T15:49:56.877Z,7.50
2023-01-23T15:55:04.629Z,6.25
2023-01-23T16:00:15.064Z,6.93
2023-01-23T16:05:18.699Z,7.22
2023-01-23T16:10:25.783Z,6.13
2023-01-23T16:15:30.568Z,7.18
2023-01-23T16:20:36.336Z,6.47
2023-01-23T16:25:45.018Z,8.27
2023-01-23T16:30:50.719Z,8.38
2023-01-23T16:41:01.571Z,8.00
2023-01-23T16:46:05.004Z,7.07
2023-01-23T16:51:17.039Z,5.20
2023-01-23T16:56:24.647Z,6.20
2023-01-23T17:01:30.042Z,7.05
2023-01-23T17:06:33.345Z,7.13
2023-01-23T17:11:41.060Z,7.13
2023-01-23T17:16:45.345Z,8.30
2023-01-23T17:21:49.563Z,8.70
2023-01-23T17:26:54.228Z,7.05
2023-01-23T17:31:57.926Z,6.25
2023-01-23T17:37:01.136Z,8.70
2023-01-23T17:42:05.932Z,8.70
2023-01-23T17:47:11.507Z,6.07
2023-01-23T17:52:15.147Z,6.95
2023-01-23T17:57:19.982Z,7.78
2023-01-23T18:02:27.009Z,7.22
2023-01-23T18:07:30.374Z,7.60
2023-01-23T18:12:44.825Z,6.43
2023-01-23T18:17:52.742Z,8.07
2023-01-23T18:22:56.946Z,7.28
2023-01-23T18:28:08.462Z,9.10
2023-01-23T18:33:41.132Z,8.23
2023-01-23T18:39:03.237Z,6.50
2023-01-23T18:44:16.305Z,6.40
2023-01-23T18:49:32.440Z,7.63
2023-01-23T18:54:42.725Z,9.35
2023-01-23T18:59:58.843Z,7.90
2023-01-23T19:05:21.105Z,5.97
2023-01-23T19:10:27.988Z,7.30
2023-01-23T19:15:38.482Z,6.53
2023-01-23T19:20:46.626Z,7.28
2023-01-23T19:25:50.168Z,7.68
2023-01-23T19:30:55.658Z,8.10
2023-01-23T19:35:59.865Z,7.68
2023-01-23T19:41:03.964Z,6.45
2023-01-23T19:46:09.167Z,6.72
2023-01-23T19:51:16.786Z,7.25
2023-01-23T19:56:20.144Z,8.02
2023-01-23T20:01:33.250Z,6.13
2023-01-23T20:06:40.390Z,6.22
2023-01-23T20:11:44.298Z,7.13
2023-01-23T20:16:48.891Z,7.53
2023-01-23T20:21:52.179Z,6.72
2023-01-23T20:26:55.474Z,6.80
2023-01-23T20:32:00.039Z,7.47
2023-01-23T20:37:03.315Z,7.93
2023-01-23T20:42:06.735Z,6.30
2023-01-23T20:47:11.377Z,6.75
2023-01-23T20:52:33.601Z,6.60
2023-01-23T20:58:03.142Z,6.93
2023-01-23T21:03:08.089Z,6.32
2023-01-23T21:08:11.436Z,7.07
2023-01-23T21:13:17.808Z,7.65
2023-01-23T21:18:22.425Z,7.70
2023-01-23T21:23:25.535Z,7.35
2023-01-23T21:28:30.693Z,8.00
2023-01-23T21:38:38.817Z,7.22
2023-01-23T21:43:42.032Z,6.35
2023-01-23T21:48:46.629Z,5.70
2023-01-23T21:53:50.572Z,6.53
2023-01-23T21:58:55.276Z,8.63
2023-01-23T22:04:01.313Z,8.02
2023-01-23T22:09:05.310Z,6.95
2023-01-23T22:14:08.581Z,7.20
2023-01-23T22:19:14.230Z,8.57
2023-01-23T22:24:17.572Z,9.35
2023-01-23T22:29:22.805Z,8.05
2023-01-23T22:34:27.892Z,7.90
2023-01-23T22:39:31.392Z,7.45
2023-01-23T22:44:34.885Z,8.23
2023-01-23T22:49:39.384Z,6.45
2023-01-23T22:54:42.646Z,8.37
2023-01-23T22:59:47.783Z,8.23
2023-01-23T23:04:53.004Z,8.95
2023-01-23T23:09:56.325Z,9.95
2023-01-23T23:14:59.810Z,8.70
2023-01-23T23:20:06.909Z,9.38
2023-01-23T23:25:10.868Z,9.55
2023-01-23T23:30:15.134Z,8.45
2023-01-23T23:35:20.369Z,10.77
2023-01-23T23:40:23.720Z,8.60
2023-01-23T23:45:27.217Z,8.52
2023-01-23T23:50:32.976Z,7.18
2023-01-23T23:55:36.144Z,9.85
